createdAt,value
2017-04-28T00:00:53.204Z,2.88
2017-04-28T00:03:24.164Z,2.62
2017-04-28T00:06:02.869Z,3.35
2017-04-28T00:08:32.839Z,3.07
2017-04-28T00:11:03.304Z,2.80
2017-04-28T00:13:32.784Z,3.52
2017-04-28T00:16:03.576Z,3.07
2017-04-28T00:18:33.419Z,2.85
2017-04-28T00:21:04.100Z,3.05
2017-04-28T00:23:34.015Z,2.97
2017-04-28T00:26:05.891Z,2.97
2017-04-28T00:28:36.890Z,2.88
2017-04-28T00:31:06.768Z,3.03
2017-04-28T00:33:37.545Z,2.98
2017-04-28T00:36:06.971Z,3.45
2017-04-28T00:38:37.840Z,3.45
2017-04-28T00:41:07.882Z,3.35
2017-04-28T00:43:38.736Z,3.40
2017-04-28T00:46:09.276Z,3.58
2017-04-28T00:48:39.066Z,3.78
2017-04-28T00:51:08.491Z,3.47
2017-04-28T00:53:38.420Z,3.32
2017-04-28T00:56:08.206Z,4.15
2017-04-28T00:58:37.559Z,3.97
2017-04-28T01:01:07.647Z,3.97
2017-04-28T01:03:38.615Z,3.78
2017-04-28T01:06:09.506Z,3.78
2017-04-28T01:08:41.128Z,3.50
2017-04-28T01:11:11.780Z,4.08
2017-04-28T01:13:42.159Z,3.53
2017-04-28T01:16:12.574Z,3.68
2017-04-28T01:18:42.484Z,4.28
2017-04-28T01:21:12.886Z,4.05
2017-04-28T01:23:43.064Z,3.93
2017-04-28T01:26:15.517Z,4.23
2017-04-28T01:28:45.607Z,4.18
2017-04-28T01:31:14.846Z,4.57
2017-04-28T01:33:44.462Z,3.58
2017-04-28T01:36:15.023Z,3.60
2017-04-28T01:38:44.806Z,3.40
2017-04-28T01:41:14.751Z,3.42
2017-04-28T01:43:45.130Z,3.87
2017-04-28T01:46:14.731Z,3.77
2017-04-28T01:48:44.775Z,4.65
2017-04-28T01:51:14.011Z,3.98
2017-04-28T01:53:44.183Z,3.52
2017-04-28T01:56:14.039Z,3.60
2017-04-28T01:58:45.479Z,2.95
2017-04-28T02:01:19.368Z,3.38
2017-04-28T02:03:49.536Z,3.27
2017-04-28T02:06:19.137Z,3.77
2017-04-28T02:08:49.936Z,3.50
2017-04-28T02:11:19.728Z,3.98
2017-04-28T02:13:50.172Z,3.20
2017-04-28T02:16:20.060Z,3.38
2017-04-28T02:18:50.906Z,4.67
2017-04-28T02:21:20.403Z,3.48
2017-04-28T02:23:51.083Z,4.80
2017-04-28T02:26:20.943Z,3.82
2017-04-28T02:28:50.372Z,3.77
2017-04-28T02:31:22.117Z,3.68
2017-04-28T02:33:51.661Z,3.20
2017-04-28T02:36:21.798Z,3.75
2017-04-28T02:38:51.343Z,3.68
2017-04-28T02:41:20.527Z,4.22
2017-04-28T02:43:49.761Z,4.20
2017-04-28T02:46:19.603Z,3.70
2017-04-28T02:48:48.642Z,3.52
2017-04-28T02:51:17.670Z,3.58
2017-04-28T02:53:46.767Z,4.17
2017-04-28T02:56:15.799Z,3.38
2017-04-28T02:58:44.826Z,3.30
2017-04-28T03:01:13.874Z,4.63
2017-04-28T03:03:42.902Z,3.48
2017-04-28T03:06:11.930Z,4.60
2017-04-28T03:08:41.728Z,3.63
2017-04-28T03:11:11.499Z,3.65
2017-04-28T03:13:40.532Z,3.52
2017-04-28T03:16:09.578Z,3.42
2017-04-28T03:18:38.606Z,4.32
2017-04-28T03:21:07.630Z,4.08
2017-04-28T03:23:36.686Z,3.30
2017-04-28T03:26:05.710Z,3.45
2017-04-28T03:28:35.484Z,4.13
2017-04-28T03:31:04.526Z,3.28
2017-04-28T03:33:34.298Z,3.50
2017-04-28T03:36:03.323Z,3.63
2017-04-28T03:38:33.127Z,3.45
2017-04-28T03:41:02.159Z,4.08
2017-04-28T03:43:31.191Z,4.38
2017-04-28T03:46:00.241Z,4.97
2017-04-28T03:48:29.283Z,4.40
2017-04-28T03:50:58.310Z,4.18
2017-04-28T03:53:27.371Z,4.58
2017-04-28T03:55:56.403Z,4.27
2017-04-28T03:58:26.173Z,5.43
2017-04-28T04:00:55.234Z,4.42
2017-04-28T04:03:24.275Z,5.02
2017-04-28T04:05:53.316Z,4.78
2017-04-28T04:08:22.374Z,5.55
2017-04-28T04:10:51.406Z,4.87
2017-04-28T04:13:20.448Z,5.50
2017-04-28T04:15:49.514Z,5.42
2017-04-28T04:18:18.542Z,5.45
2017-04-28T04:20:47.590Z,5.88
2017-04-28T04:23:16.640Z,5.27
2017-04-28T04:25:45.682Z,6.95
2017-04-28T04:28:14.715Z,7.27
2017-04-28T04:30:43.774Z,7.10
2017-04-28T04:33:12.806Z,5.78
2017-04-28T04:35:41.834Z,5.65
2017-04-28T04:38:11.831Z,5.63
2017-04-28T04:40:40.879Z,6.78
2017-04-28T04:43:09.930Z,6.50
2017-04-28T04:45:38.982Z,6.18
2017-04-28T04:48:08.042Z,6.07
2017-04-28T04:50:37.071Z,6.48
2017-04-28T04:53:06.130Z,6.32
2017-04-28T04:55:35.165Z,6.03
2017-04-28T04:58:04.194Z,6.58
2017-04-28T05:00:33.243Z,6.10
2017-04-28T05:03:02.267Z,6.35
2017-04-28T05:05:31.299Z,6.38
2017-04-28T05:08:00.370Z,6.57
2017-04-28T05:10:29.404Z,5.82
2017-04-28T05:12:58.434Z,6.58
2017-04-28T05:15:27.490Z,5.90
2017-04-28T05:17:56.519Z,5.65
2017-04-28T05:20:25.581Z,6.60
2017-04-28T05:22:54.638Z,5.23
2017-04-28T05:25:23.674Z,4.80
2017-04-28T05:27:52.702Z,4.73
2017-04-28T05:30:21.752Z,5.35
2017-04-28T05:32:51.399Z,4.60
2017-04-28T05:35:20.426Z,5.85
2017-04-28T05:37:49.478Z,6.27
2017-04-28T05:40:18.511Z,5.43
2017-04-28T05:42:47.550Z,6.63
2017-04-28T05:45:16.602Z,6.00
2017-04-28T05:47:45.643Z,6.53
2017-04-28T05:50:14.674Z,5.83
2017-04-28T05:52:43.717Z,6.32
2017-04-28T05:55:12.750Z,6.07
2017-04-28T05:57:41.786Z,6.13
2017-04-28T06:00:11.583Z,7.35
2017-04-28T06:02:40.614Z,7.83
2017-04-28T06:05:09.647Z,7.15
2017-04-28T06:07:38.698Z,6.67
2017-04-28T06:10:08.467Z,7.40
2017-04-28T06:12:37.501Z,8.12
2017-04-28T06:15:07.312Z,8.05
2017-04-28T06:17:37.083Z,8.43
2017-04-28T06:20:07.141Z,11.85
2017-04-28T06:22:36.921Z,11.32
2017-04-28T06:25:05.954Z,10.50
2017-04-28T06:27:35.746Z,11.90
2017-04-28T06:30:04.784Z,10.62
2017-04-28T06:32:33.844Z,11.97
2017-04-28T06:35:03.650Z,12.75
2017-04-28T06:37:32.693Z,11.28
2017-04-28T06:40:01.729Z,11.92
2017-04-28T06:42:30.798Z,11.03
2017-04-28T06:44:59.831Z,12.62
2017-04-28T06:47:29.621Z,12.12
2017-04-28T06:49:58.687Z,12.43
2017-04-28T06:52:27.727Z,13.03
2017-04-28T06:54:56.775Z,13.17
2017-04-28T06:57:25.850Z,12.92
2017-04-28T06:59:54.896Z,12.98
2017-04-28T07:02:23.959Z,13.22
2017-04-28T07:04:53.015Z,12.93
2017-04-28T07:07:22.071Z,13.35
2017-04-28T07:09:51.107Z,13.67
2017-04-28T07:12:20.907Z,11.63
2017-04-28T07:14:49.946Z,11.62
2017-04-28T07:17:18.982Z,11.12
2017-04-28T07:19:48.042Z,9.33
2017-04-28T07:22:17.078Z,10.17
2017-04-28T07:24:46.891Z,10.77
2017-04-28T07:27:15.961Z,10.77
2017-04-28T07:29:44.996Z,9.43
2017-04-28T07:32:14.029Z,10.37
2017-04-28T07:34:43.082Z,8.72
2017-04-28T07:37:12.862Z,9.75
2017-04-28T07:39:41.890Z,9.23
2017-04-28T07:42:10.954Z,8.52
2017-04-28T07:44:39.986Z,10.77
2017-04-28T07:47:15.550Z,9.57
2017-04-28T07:49:44.590Z,10.05
2017-04-28T07:52:13.626Z,10.07
2017-04-28T07:54:43.430Z,8.62
2017-04-28T07:57:13.200Z,9.78
2017-04-28T07:59:42.242Z,8.73
2017-04-28T08:02:12.041Z,8.03
2017-04-28T08:04:41.083Z,7.83
2017-04-28T08:07:10.121Z,9.10
2017-04-28T08:09:39.183Z,8.55
2017-04-28T08:12:08.219Z,8.48
2017-04-28T08:14:37.256Z,8.10
2017-04-28T08:17:07.072Z,8.17
2017-04-28T08:19:36.110Z,8.97
2017-04-28T08:22:05.161Z,8.28
2017-04-28T08:24:34.226Z,10.13
2017-04-28T08:27:03.999Z,8.42
2017-04-28T08:29:33.055Z,8.78
2017-04-28T08:32:02.105Z,7.47
2017-04-28T08:34:31.169Z,8.30
2017-04-28T08:37:00.214Z,9.13
2017-04-28T08:39:30.017Z,8.40
2017-04-28T08:41:59.058Z,8.77
2017-04-28T08:44:28.127Z,8.28
2017-04-28T08:46:57.926Z,8.70
2017-04-28T08:49:27.725Z,7.97
2017-04-28T08:51:56.780Z,7.75
2017-04-28T08:54:25.822Z,7.67
2017-04-28T08:56:54.864Z,7.77
2017-04-28T08:59:23.922Z,7.12
2017-04-28T09:01:53.709Z,8.33
2017-04-28T09:04:22.764Z,6.75
2017-04-28T09:06:51.802Z,7.28
2017-04-28T09:09:20.875Z,7.92
2017-04-28T09:11:49.916Z,8.05
2017-04-28T09:14:19.695Z,7.35
2017-04-28T09:16:48.755Z,8.33
2017-04-28T09:19:17.812Z,7.53
2017-04-28T09:21:47.617Z,7.12
2017-04-28T09:24:16.659Z,6.83
2017-04-28T09:26:45.723Z,7.32
2017-04-28T09:29:15.515Z,7.67
2017-04-28T09:31:44.571Z,6.77
2017-04-28T09:34:13.641Z,7.35
2017-04-28T09:36:42.695Z,6.48
2017-04-28T09:39:11.791Z,6.53
2017-04-28T09:41:40.835Z,6.93
2017-04-28T09:44:09.901Z,6.80
2017-04-28T09:46:39.696Z,6.22
2017-04-28T09:49:08.734Z,6.98
2017-04-28T09:51:37.790Z,6.00
2017-04-28T09:54:06.838Z,7.73
2017-04-28T09:56:35.878Z,6.85
2017-04-28T09:59:04.935Z,6.55
2017-04-28T10:01:33.976Z,7.00
2017-04-28T10:04:03.776Z,7.72
2017-04-28T10:06:32.826Z,7.45
2017-04-28T10:09:01.879Z,7.65
2017-04-28T10:11:31.665Z,6.87
2017-04-28T10:14:00.741Z,6.98
2017-04-28T10:16:29.786Z,8.93
2017-04-28T10:18:59.576Z,7.65
2017-04-28T10:21:28.631Z,9.35
2017-04-28T10:23:57.698Z,7.50
2017-04-28T10:26:27.495Z,8.05
2017-04-28T10:28:57.282Z,8.57
2017-04-28T10:31:26.350Z,9.20
2017-04-28T10:33:55.391Z,9.47
2017-04-28T10:36:24.440Z,8.45
2017-04-28T10:38:53.503Z,9.07
2017-04-28T10:41:22.542Z,8.58
2017-04-28T10:43:51.602Z,8.28
2017-04-28T10:46:20.643Z,9.22
2017-04-28T10:48:49.716Z,9.52
2017-04-28T10:51:18.759Z,8.97
2017-04-28T10:53:47.811Z,9.00
2017-04-28T10:56:16.865Z,8.98
2017-04-28T10:58:46.650Z,9.82
2017-04-28T11:01:15.720Z,9.82
2017-04-28T11:03:44.766Z,9.80
2017-04-28T11:06:14.575Z,9.95
2017-04-28T11:08:44.361Z,8.22
2017-04-28T11:11:13.411Z,7.80
2017-04-28T11:13:43.043Z,9.47
2017-04-28T11:16:12.090Z,9.23
2017-04-28T11:18:41.903Z,8.57
2017-04-28T11:21:11.695Z,8.87
2017-04-28T11:23:40.736Z,9.25
2017-04-28T11:26:09.790Z,8.65
2017-04-28T11:28:39.417Z,8.58
2017-04-28T11:31:08.493Z,8.57
2017-04-28T11:33:37.540Z,9.58
2017-04-28T11:36:06.594Z,8.00
2017-04-28T11:38:36.396Z,9.02
2017-04-28T11:41:05.438Z,8.22
2017-04-28T11:43:34.514Z,8.33
2017-04-28T11:46:03.554Z,7.93
2017-04-28T11:48:32.599Z,7.73
2017-04-28T11:51:01.667Z,8.38
2017-04-28T11:53:30.707Z,7.83
2017-04-28T11:55:59.762Z,8.02
2017-04-28T11:58:29.545Z,6.35
2017-04-28T12:00:58.603Z,6.68
2017-04-28T12:03:27.646Z,6.65
2017-04-28T12:05:56.717Z,7.23
2017-04-28T12:08:25.760Z,7.68
2017-04-28T12:10:55.562Z,6.22
2017-04-28T12:13:24.623Z,6.90
2017-04-28T12:15:53.667Z,6.60
2017-04-28T12:18:23.450Z,8.02
2017-04-28T12:20:52.520Z,6.17
2017-04-28T12:23:21.574Z,7.07
2017-04-28T12:25:50.627Z,6.53
2017-04-28T12:28:19.691Z,7.23
2017-04-28T12:30:48.744Z,7.53
2017-04-28T12:33:18.531Z,7.78
2017-04-28T12:35:47.615Z,7.35
2017-04-28T12:38:16.662Z,7.48
2017-04-28T12:40:45.710Z,7.45
2017-04-28T12:43:14.799Z,6.58
2017-04-28T12:45:43.843Z,6.68
2017-04-28T12:48:13.636Z,6.45
2017-04-28T12:50:42.724Z,6.00
2017-04-28T12:53:11.770Z,6.65
2017-04-28T12:55:40.816Z,7.43
2017-04-28T12:58:09.886Z,6.32
2017-04-28T13:00:38.925Z,6.85
2017-04-28T13:03:08.714Z,5.58
2017-04-28T13:05:37.784Z,6.60
2017-04-28T13:08:06.827Z,6.65
2017-04-28T13:10:36.613Z,6.18
2017-04-28T13:13:05.694Z,6.33
2017-04-28T13:15:34.740Z,6.93
2017-04-28T13:18:04.531Z,6.53
2017-04-28T13:20:33.639Z,5.42
2017-04-28T13:23:03.430Z,6.18
2017-04-28T13:25:32.481Z,6.45
2017-04-28T13:28:01.966Z,6.00
2017-04-28T13:30:31.007Z,5.82
2017-04-28T13:33:00.242Z,6.20
2017-04-28T13:35:30.063Z,6.20
2017-04-28T13:37:59.844Z,6.82
2017-04-28T13:40:28.891Z,6.33
2017-04-28T13:42:57.977Z,6.57
2017-04-28T13:45:27.031Z,7.40
2017-04-28T13:47:56.839Z,6.50
2017-04-28T13:50:25.922Z,6.70
2017-04-28T13:52:54.963Z,5.83
2017-04-28T13:55:24.743Z,4.93
2017-04-28T13:57:53.863Z,4.88
2017-04-28T14:00:23.678Z,5.68
2017-04-28T14:02:53.478Z,5.62
2017-04-28T14:05:22.538Z,4.67
2017-04-28T14:07:51.607Z,5.12
2017-04-28T14:10:20.787Z,5.22
2017-04-28T14:12:50.568Z,4.42
2017-04-28T14:15:19.621Z,4.57
2017-04-28T14:17:48.663Z,5.40
2017-04-28T14:20:17.706Z,5.42
2017-04-28T14:22:46.752Z,5.57
2017-04-28T14:25:15.804Z,4.48
2017-04-28T14:27:44.850Z,4.75
2017-04-28T14:30:13.899Z,4.92
2017-04-28T14:32:42.943Z,5.23
2017-04-28T14:35:12.735Z,5.05
2017-04-28T14:37:41.809Z,5.13
2017-04-28T14:40:10.855Z,4.42
2017-04-28T14:42:40.639Z,4.45
2017-04-28T14:45:09.692Z,5.00
2017-04-28T14:47:38.747Z,4.40
2017-04-28T14:50:07.788Z,4.32
2017-04-28T14:52:36.832Z,4.35
2017-04-28T14:55:05.883Z,4.42
2017-04-28T14:57:34.931Z,4.50
2017-04-28T15:00:05.499Z,4.95
2017-04-28T15:02:34.555Z,4.98
2017-04-28T15:05:05.274Z,4.65
2017-04-28T15:07:34.319Z,4.52
2017-04-28T15:10:03.368Z,4.80
2017-04-28T15:12:32.411Z,4.05
2017-04-28T15:15:01.451Z,4.40
2017-04-28T15:17:33.918Z,4.42
2017-04-28T15:20:02.980Z,4.47
2017-04-28T15:22:32.023Z,3.95
2017-04-28T15:25:08.031Z,4.10
2017-04-28T15:27:37.207Z,4.20
2017-04-28T15:30:06.263Z,4.23
2017-04-28T15:32:39.039Z,4.07
2017-04-28T15:35:08.079Z,4.45
2017-04-28T15:37:43.040Z,4.85
2017-04-28T15:40:12.079Z,5.00
2017-04-28T15:42:41.115Z,4.77
2017-04-28T15:45:10.174Z,5.05
2017-04-28T15:47:39.219Z,4.27
2017-04-28T15:50:08.264Z,4.65
2017-04-28T15:52:42.140Z,5.65
2017-04-28T15:55:11.275Z,5.63
2017-04-28T15:57:41.056Z,5.28
2017-04-28T16:00:10.103Z,5.90
2017-04-28T16:02:39.152Z,4.60
2017-04-28T16:05:08.207Z,5.13
2017-04-28T16:07:37.247Z,4.35
2017-04-28T16:10:06.314Z,4.58
2017-04-28T16:12:35.400Z,4.62
2017-04-28T16:15:12.693Z,4.77
2017-04-28T16:17:41.736Z,4.35
2017-04-28T16:20:11.525Z,4.12
2017-04-28T16:22:40.571Z,5.32
2017-04-28T16:25:09.623Z,5.48
2017-04-28T16:27:38.672Z,6.25
2017-04-28T16:30:07.716Z,4.97
2017-04-28T16:32:36.768Z,6.20
2017-04-28T16:35:05.808Z,5.73
2017-04-28T16:37:34.896Z,5.02
2017-04-28T16:40:03.971Z,5.90
2017-04-28T16:42:33.014Z,5.72
2017-04-28T16:45:02.075Z,5.50
2017-04-28T16:47:31.111Z,5.38
2017-04-28T16:50:00.891Z,5.43
2017-04-28T16:52:29.942Z,5.53
2017-04-28T16:54:58.983Z,5.28
2017-04-28T16:57:28.039Z,5.08
2017-04-28T16:59:57.112Z,5.18
2017-04-28T17:02:26.175Z,4.55
2017-04-28T17:04:55.234Z,5.97
2017-04-28T17:07:24.287Z,5.67
2017-04-28T17:09:53.339Z,5.02
2017-04-28T17:12:22.393Z,5.27
2017-04-28T17:14:51.440Z,6.08
2017-04-28T17:17:20.495Z,5.80
2017-04-28T17:19:49.572Z,5.83
2017-04-28T17:22:18.615Z,5.62
2017-04-28T17:24:47.677Z,5.55
2017-04-28T17:27:16.716Z,5.82
2017-04-28T17:29:45.763Z,5.77
2017-04-28T17:32:14.811Z,5.98
2017-04-28T17:34:43.862Z,5.92
2017-04-28T17:37:12.910Z,5.68
2017-04-28T17:39:42.708Z,5.18
2017-04-28T17:42:11.754Z,4.60
2017-04-28T17:44:40.811Z,5.45
2017-04-28T17:47:10.595Z,4.93
2017-04-28T17:49:42.775Z,5.32
2017-04-28T17:52:11.819Z,5.03
2017-04-28T17:54:41.783Z,5.17
2017-04-28T17:57:10.821Z,4.75
2017-04-28T17:59:39.866Z,5.08
2017-04-28T18:02:08.914Z,4.67
2017-04-28T18:04:37.966Z,4.20
2017-04-28T18:07:07.015Z,4.87
2017-04-28T18:09:36.061Z,3.73
2017-04-28T18:12:05.100Z,4.22
2017-04-28T18:14:34.147Z,4.05
2017-04-28T18:17:03.193Z,4.83
2017-04-28T18:19:32.243Z,4.33
2017-04-28T18:22:01.284Z,4.53
2017-04-28T18:24:30.323Z,4.25
2017-04-28T18:26:59.377Z,4.88
2017-04-28T18:29:28.419Z,4.80
2017-04-28T18:31:57.459Z,4.75
2017-04-28T18:34:26.499Z,4.25
2017-04-28T18:36:55.741Z,3.93
2017-04-28T18:39:24.856Z,4.90
2017-04-28T18:41:53.911Z,4.43
2017-04-28T18:44:23.058Z,4.60
2017-04-28T18:46:52.098Z,3.88
2017-04-28T18:49:21.159Z,4.23
2017-04-28T18:51:50.292Z,4.00
2017-04-28T18:54:21.323Z,4.92
2017-04-28T18:56:50.490Z,4.37
2017-04-28T18:59:19.538Z,4.80
2017-04-28T19:01:49.366Z,4.20
2017-04-28T19:04:21.887Z,4.50
2017-04-28T19:06:50.929Z,3.43
2017-04-28T19:09:20.711Z,3.65
2017-04-28T19:11:49.783Z,3.85
2017-04-28T19:14:18.824Z,3.93
2017-04-28T19:16:48.606Z,4.20
2017-04-28T19:19:17.656Z,3.92
2017-04-28T19:21:46.719Z,4.22
2017-04-28T19:24:16.503Z,4.05
2017-04-28T19:26:45.558Z,4.78
2017-04-28T19:29:14.606Z,3.45
2017-04-28T19:31:43.662Z,3.70
2017-04-28T19:36:52.443Z,4.22
2017-04-28T19:39:21.511Z,3.63
2017-04-28T19:41:50.550Z,4.03
2017-04-28T19:44:20.342Z,4.32
2017-04-28T19:46:49.398Z,4.80
2017-04-28T19:49:18.436Z,4.67
2017-04-28T19:51:47.504Z,4.75
2017-04-28T19:54:16.566Z,4.40
2017-04-28T19:56:45.618Z,5.27
2017-04-28T19:59:14.658Z,4.63
2017-04-28T20:01:43.701Z,4.97
2017-04-28T20:04:12.756Z,4.52
2017-04-28T20:06:41.791Z,5.00
2017-04-28T20:09:10.851Z,5.25
2017-04-28T20:11:39.887Z,4.62
2017-04-28T20:14:08.946Z,4.70
2017-04-28T20:16:38.011Z,4.30
2017-04-28T20:19:07.046Z,4.88
2017-04-28T20:21:36.087Z,5.23
2017-04-28T20:24:05.891Z,4.68
2017-04-28T20:26:34.938Z,5.42
2017-04-28T20:29:03.994Z,5.52
2017-04-28T20:31:33.822Z,4.93
2017-04-28T20:34:02.858Z,5.43
2017-04-28T20:36:31.925Z,5.52
2017-04-28T20:39:00.958Z,5.27
2017-04-28T20:41:30.037Z,5.88
2017-04-28T20:43:59.098Z,6.08
2017-04-28T20:46:28.134Z,6.00
2017-04-28T20:48:59.203Z,6.35
2017-04-28T20:51:28.242Z,4.98
2017-04-28T20:53:57.282Z,6.20
2017-04-28T20:56:26.421Z,6.43
2017-04-28T20:58:55.529Z,6.27
2017-04-28T21:01:30.391Z,5.60
2017-04-28T21:03:59.454Z,6.15
2017-04-28T21:06:28.503Z,5.67
2017-04-28T21:08:57.551Z,5.57
2017-04-28T21:11:26.620Z,6.13
2017-04-28T21:13:55.667Z,6.62
2017-04-28T21:16:24.705Z,5.72
2017-04-28T21:18:54.498Z,5.28
2017-04-28T21:21:23.538Z,6.13
2017-04-28T21:23:52.582Z,5.30
2017-04-28T21:26:21.650Z,6.40
2017-04-28T21:28:50.694Z,4.83
2017-04-28T21:31:20.475Z,5.35
2017-04-28T21:33:49.540Z,5.58
2017-04-28T21:36:18.721Z,5.97
2017-04-28T21:38:47.767Z,5.90
2017-04-28T21:41:16.854Z,5.92
2017-04-28T21:43:45.898Z,5.48
2017-04-28T21:46:14.945Z,6.67
2017-04-28T21:48:44.011Z,6.08
2017-04-28T21:51:13.053Z,6.18
2017-04-28T21:53:42.091Z,5.97
2017-04-28T21:56:14.938Z,6.15
2017-04-28T21:58:44.719Z,6.10
2017-04-28T22:01:13.811Z,5.12
2017-04-28T22:03:42.873Z,6.67
2017-04-28T22:06:11.934Z,6.72
2017-04-28T22:08:40.971Z,6.10
2017-04-28T22:11:10.132Z,7.12
2017-04-28T22:13:39.923Z,6.12
2017-04-28T22:16:14.455Z,6.68
2017-04-28T22:18:43.495Z,6.28
2017-04-28T22:21:12.658Z,7.15
2017-04-28T22:23:42.465Z,7.25
2017-04-28T22:26:11.506Z,7.03
2017-04-28T22:28:40.588Z,7.28
2017-04-28T22:31:09.644Z,6.60
2017-04-28T22:33:38.683Z,6.72
2017-04-28T22:36:07.785Z,7.00
2017-04-28T22:38:36.904Z,6.45
2017-04-28T22:41:05.999Z,6.83
2017-04-28T22:43:35.062Z,6.95
2017-04-28T22:46:04.209Z,6.03
2017-04-28T22:48:33.271Z,7.02
2017-04-28T22:51:02.367Z,6.23
2017-04-28T22:53:31.460Z,6.70
2017-04-28T22:56:00.530Z,6.42
2017-04-28T22:58:29.619Z,6.63
2017-04-28T23:00:58.765Z,7.10
2017-04-28T23:03:27.819Z,6.20
2017-04-28T23:05:56.883Z,6.58
2017-04-28T23:08:25.958Z,6.08
2017-04-28T23:10:55.048Z,6.03
2017-04-28T23:13:24.112Z,6.18
2017-04-28T23:15:53.189Z,6.42
2017-04-28T23:18:22.999Z,6.40
2017-04-28T23:20:52.815Z,6.28
2017-04-28T23:23:22.016Z,6.93
2017-04-28T23:25:51.170Z,6.25
2017-04-28T23:28:20.248Z,6.33
2017-04-28T23:30:49.386Z,6.15
2017-04-28T23:33:18.464Z,5.63
2017-04-28T23:35:47.786Z,5.90
2017-04-28T23:38:17.637Z,5.78
2017-04-28T23:40:46.742Z,5.88
2017-04-28T23:43:15.826Z,6.42
2017-04-28T23:45:44.950Z,5.80
2017-04-28T23:48:14.030Z,5.65
2017-04-28T23:50:43.140Z,6.23
2017-04-28T23:53:12.237Z,5.65
2017-04-28T23:55:41.298Z,6.18
2017-04-28T23:58:10.360Z,6.28
